sensor_id;sensor_type;location;lat;lon;timestamp;noise_LAeq;noise_LA_min;noise_LA_max;noise_LA01;noise_LA95
85141;Laerm;75501;52.586;13.284;2024-02-04T00:01:33;53.55;52.26;62.37;;
85141;Laerm;75501;52.586;13.284;2024-02-04T00:04:02;54.34;52.50;62.51;;
85141;Laerm;75501;52.586;13.284;2024-02-04T00:06:30;53.89;52.43;62.22;;
85141;Laerm;75501;52.586;13.284;2024-02-04T00:08:59;53.74;52.33;62.07;;
85141;Laerm;75501;52.586;13.284;2024-02-04T00:11:27;53.89;52.20;61.17;;
85141;Laerm;75501;52.586;13.284;2024-02-04T00:13:55;53.70;52.33;62.29;;
85141;Laerm;75501;52.586;13.284;2024-02-04T00:16:23;53.78;52.06;62.33;;
85141;Laerm;75501;52.586;13.284;2024-02-04T00:18:52;53.54;52.32;63.55;;
85141;Laerm;75501;52.586;13.284;2024-02-04T00:21:21;53.82;52.33;62.13;;
85141;Laerm;75501;52.586;13.284;2024-02-04T00:23:49;53.60;52.23;61.08;;
85141;Laerm;75501;52.586;13.284;2024-02-04T00:26:17;53.79;52.07;61.18;;
85141;Laerm;75501;52.586;13.284;2024-02-04T00:28:45;53.40;52.13;61.21;;
85141;Laerm;75501;52.586;13.284;2024-02-04T00:31:13;53.70;52.07;62.51;;
85141;Laerm;75501;52.586;13.284;2024-02-04T00:33:41;53.66;51.86;61.73;;
85141;Laerm;75501;52.586;13.284;2024-02-04T00:36:11;53.66;51.76;61.56;;
85141;Laerm;75501;52.586;13.284;2024-02-04T00:38:39;53.55;52.14;70.80;;
85141;Laerm;75501;52.586;13.284;2024-02-04T00:41:07;53.55;52.06;60.91;;
85141;Laerm;75501;52.586;13.284;2024-02-04T00:43:35;53.60;52.03;63.37;;
85141;Laerm;75501;52.586;13.284;2024-02-04T00:46:03;53.53;52.14;61.96;;
85141;Laerm;75501;52.586;13.284;2024-02-04T00:48:31;53.52;52.19;61.99;;
85141;Laerm;75501;52.586;13.284;2024-02-04T00:51:00;53.70;51.95;61.06;;
85141;Laerm;75501;52.586;13.284;2024-02-04T00:53:29;53.68;52.03;60.98;;
85141;Laerm;75501;52.586;13.284;2024-02-04T00:56:01;53.73;51.96;62.27;;
85141;Laerm;75501;52.586;13.284;2024-02-04T00:58:30;53.72;52.17;69.81;;
85141;Laerm;75501;52.586;13.284;2024-02-04T01:00:58;53.77;52.26;63.21;;
85141;Laerm;75501;52.586;13.284;2024-02-04T01:03:26;53.84;52.23;61.88;;
85141;Laerm;75501;52.586;13.284;2024-02-04T01:05:54;53.62;52.11;63.18;;
85141;Laerm;75501;52.586;13.284;2024-02-04T01:08:23;53.66;52.06;70.42;;
85141;Laerm;75501;52.586;13.284;2024-02-04T01:10:55;53.74;52.11;63.77;;
85141;Laerm;75501;52.586;13.284;2024-02-04T01:13:23;53.82;52.27;62.90;;
85141;Laerm;75501;52.586;13.284;2024-02-04T01:15:51;53.77;52.18;64.51;;
85141;Laerm;75501;52.586;13.284;2024-02-04T01:18:19;53.78;52.44;64.17;;
85141;Laerm;75501;52.586;13.284;2024-02-04T01:20:48;53.70;52.31;64.96;;
85141;Laerm;75501;52.586;13.284;2024-02-04T01:23:16;53.95;52.07;62.52;;
85141;Laerm;75501;52.586;13.284;2024-02-04T01:25:45;53.59;51.76;70.10;;
85141;Laerm;75501;52.586;13.284;2024-02-04T01:28:15;53.61;52.25;69.43;;
85141;Laerm;75501;52.586;13.284;2024-02-04T01:30:43;53.59;52.08;69.76;;
85141;Laerm;75501;52.586;13.284;2024-02-04T01:33:11;53.58;51.74;60.79;;
85141;Laerm;75501;52.586;13.284;2024-02-04T01:35:39;53.88;51.89;60.76;;
85141;Laerm;75501;52.586;13.284;2024-02-04T01:38:07;53.62;52.02;61.52;;
85141;Laerm;75501;52.586;13.284;2024-02-04T01:40:35;53.47;51.98;61.27;;
85141;Laerm;75501;52.586;13.284;2024-02-04T01:43:04;53.57;52.08;62.90;;
85141;Laerm;75501;52.586;13.284;2024-02-04T01:45:34;53.68;52.01;69.82;;
85141;Laerm;75501;52.586;13.284;2024-02-04T01:48:02;53.69;52.13;70.33;;
85141;Laerm;75501;52.586;13.284;2024-02-04T01:50:31;53.91;52.21;70.54;;
85141;Laerm;75501;52.586;13.284;2024-02-04T01:52:59;53.60;51.96;62.99;;
85141;Laerm;75501;52.586;13.284;2024-02-04T01:55:27;53.68;52.11;66.01;;
85141;Laerm;75501;52.586;13.284;2024-02-04T01:57:56;54.08;52.12;64.37;;
85141;Laerm;75501;52.586;13.284;2024-02-04T02:00:24;53.65;52.00;62.83;;
85141;Laerm;75501;52.586;13.284;2024-02-04T02:02:56;53.60;52.21;63.31;;
85141;Laerm;75501;52.586;13.284;2024-02-04T02:05:27;53.54;51.96;62.26;;
85141;Laerm;75501;52.586;13.284;2024-02-04T02:07:55;53.63;52.02;63.44;;
85141;Laerm;75501;52.586;13.284;2024-02-04T02:10:23;53.66;51.92;65.26;;
85141;Laerm;75501;52.586;13.284;2024-02-04T02:12:59;54.81;52.81;67.11;;
85141;Laerm;75501;52.586;13.284;2024-02-04T02:15:35;54.01;52.06;70.58;;
85141;Laerm;75501;52.586;13.284;2024-02-04T02:18:12;53.67;52.21;64.47;;
85141;Laerm;75501;52.586;13.284;2024-02-04T02:21:09;54.25;52.50;65.71;;
85141;Laerm;75501;52.586;13.284;2024-02-04T02:23:52;53.73;52.27;70.78;;
85141;Laerm;75501;52.586;13.284;2024-02-04T02:26:23;53.82;52.46;65.45;;
85141;Laerm;75501;52.586;13.284;2024-02-04T02:28:51;53.90;52.24;64.51;;
85141;Laerm;75501;52.586;13.284;2024-02-04T02:31:19;53.63;52.27;64.52;;
85141;Laerm;75501;52.586;13.284;2024-02-04T02:34:01;53.76;52.43;67.02;;
85141;Laerm;75501;52.586;13.284;2024-02-04T02:36:40;53.96;52.22;71.26;;
85141;Laerm;75501;52.586;13.284;2024-02-04T02:39:19;53.66;52.10;63.68;;
85141;Laerm;75501;52.586;13.284;2024-02-04T02:41:55;53.59;52.08;62.32;;
85141;Laerm;75501;52.586;13.284;2024-02-04T02:44:26;53.97;52.29;65.03;;
85141;Laerm;75501;52.586;13.284;2024-02-04T02:46:57;55.64;53.13;67.18;;
85141;Laerm;75501;52.586;13.284;2024-02-04T02:49:26;54.13;52.39;67.23;;
85141;Laerm;75501;52.586;13.284;2024-02-04T02:51:54;53.53;52.07;65.46;;
85141;Laerm;75501;52.586;13.284;2024-02-04T02:54:22;54.39;52.50;67.81;;
85141;Laerm;75501;52.586;13.284;2024-02-04T02:56:52;53.95;52.66;65.21;;
85141;Laerm;75501;52.586;13.284;2024-02-04T02:59:20;53.61;51.91;70.48;;
85141;Laerm;75501;52.586;13.284;2024-02-04T03:01:48;53.77;52.37;64.36;;
85141;Laerm;75501;52.586;13.284;2024-02-04T03:04:16;53.51;52.23;65.15;;
85141;Laerm;75501;52.586;13.284;2024-02-04T03:06:44;53.93;52.58;66.89;;
85141;Laerm;75501;52.586;13.284;2024-02-04T03:09:12;53.75;52.21;64.78;;
85141;Laerm;75501;52.586;13.284;2024-02-04T03:11:41;53.50;52.11;62.58;;
85141;Laerm;75501;52.586;13.284;2024-02-04T03:14:10;53.92;51.90;67.65;;
85141;Laerm;75501;52.586;13.284;2024-02-04T03:16:39;54.16;52.22;63.91;;
85141;Laerm;75501;52.586;13.284;2024-02-04T03:19:07;54.04;52.63;65.96;;
85141;Laerm;75501;52.586;13.284;2024-02-04T03:21:35;54.26;52.75;67.85;;
85141;Laerm;75501;52.586;13.284;2024-02-04T03:24:03;54.26;52.64;64.83;;
85141;Laerm;75501;52.586;13.284;2024-02-04T03:26:32;53.95;52.50;71.26;;
85141;Laerm;75501;52.586;13.284;2024-02-04T03:28:59;53.95;52.60;64.97;;
85141;Laerm;75501;52.586;13.284;2024-02-04T03:31:35;54.23;52.29;68.75;;
85141;Laerm;75501;52.586;13.284;2024-02-04T03:34:03;54.77;52.79;67.93;;
85141;Laerm;75501;52.586;13.284;2024-02-04T03:36:31;54.91;52.95;66.16;;
85141;Laerm;75501;52.586;13.284;2024-02-04T03:38:59;54.49;52.84;68.12;;
85141;Laerm;75501;52.586;13.284;2024-02-04T03:41:27;53.92;52.02;63.21;;
85141;Laerm;75501;52.586;13.284;2024-02-04T03:43:55;53.35;51.97;61.93;;
85141;Laerm;75501;52.586;13.284;2024-02-04T03:46:23;53.45;51.82;63.82;;
85141;Laerm;75501;52.586;13.284;2024-02-04T03:48:53;53.85;52.19;67.31;;
85141;Laerm;75501;52.586;13.284;2024-02-04T03:51:21;53.69;52.28;70.36;;
85141;Laerm;75501;52.586;13.284;2024-02-04T03:53:50;53.88;52.59;67.66;;
85141;Laerm;75501;52.586;13.284;2024-02-04T03:56:18;53.73;52.24;70.65;;
85141;Laerm;75501;52.586;13.284;2024-02-04T03:58:47;53.52;52.00;62.54;;
85141;Laerm;75501;52.586;13.284;2024-02-04T04:01:15;53.88;51.99;67.90;;
85141;Laerm;75501;52.586;13.284;2024-02-04T04:03:43;53.90;52.13;64.35;;
85141;Laerm;75501;52.586;13.284;2024-02-04T04:06:13;53.39;52.06;63.64;;
85141;Laerm;75501;52.586;13.284;2024-02-04T04:08:41;53.34;51.71;55.48;;
85141;Laerm;75501;52.586;13.284;2024-02-04T04:11:10;53.56;52.12;63.42;;
85141;Laerm;75501;52.586;13.284;2024-02-04T04:13:39;53.61;52.05;70.51;;
85141;Laerm;75501;52.586;13.284;2024-02-04T04:16:07;53.67;51.97;64.37;;
85141;Laerm;75501;52.586;13.284;2024-02-04T04:18:35;53.82;52.19;66.91;;
85141;Laerm;75501;52.586;13.284;2024-02-04T04:21:04;54.17;52.67;67.51;;
85141;Laerm;75501;52.586;13.284;2024-02-04T04:23:33;54.11;52.57;64.78;;
85141;Laerm;75501;52.586;13.284;2024-02-04T04:26:01;54.09;52.37;71.33;;
85141;Laerm;75501;52.586;13.284;2024-02-04T04:28:29;53.84;52.33;66.51;;
85141;Laerm;75501;52.586;13.284;2024-02-04T04:30:57;54.04;52.54;69.05;;
85141;Laerm;75501;52.586;13.284;2024-02-04T04:33:25;53.85;52.18;64.03;;
85141;Laerm;75501;52.586;13.284;2024-02-04T04:35:53;53.86;52.14;65.36;;
85141;Laerm;75501;52.586;13.284;2024-02-04T04:38:22;54.38;52.60;68.97;;
85141;Laerm;75501;52.586;13.284;2024-02-04T04:40:51;55.68;53.41;70.19;;
85141;Laerm;75501;52.586;13.284;2024-02-04T04:43:19;54.21;52.38;71.41;;
85141;Laerm;75501;52.586;13.284;2024-02-04T04:45:47;53.63;52.18;66.64;;
85141;Laerm;75501;52.586;13.284;2024-02-04T04:48:15;54.52;52.37;69.79;;
85141;Laerm;75501;52.586;13.284;2024-02-04T04:50:44;54.63;52.49;64.18;;
85141;Laerm;75501;52.586;13.284;2024-02-04T04:53:12;53.51;51.88;70.07;;
85141;Laerm;75501;52.586;13.284;2024-02-04T04:55:40;53.67;51.99;64.20;;
85141;Laerm;75501;52.586;13.284;2024-02-04T04:58:09;53.51;51.92;62.54;;
85141;Laerm;75501;52.586;13.284;2024-02-04T05:00:37;53.52;52.04;70.51;;
85141;Laerm;75501;52.586;13.284;2024-02-04T05:03:05;53.67;51.92;63.19;;
85141;Laerm;75501;52.586;13.284;2024-02-04T05:05:33;53.44;51.91;64.26;;
85141;Laerm;75501;52.586;13.284;2024-02-04T05:08:02;53.61;51.91;64.29;;
85141;Laerm;75501;52.586;13.284;2024-02-04T05:10:30;53.62;52.12;70.34;;
85141;Laerm;75501;52.586;13.284;2024-02-04T05:12:58;54.28;51.89;65.35;;
85141;Laerm;75501;52.586;13.284;2024-02-04T05:15:28;54.20;52.39;67.24;;
85141;Laerm;75501;52.586;13.284;2024-02-04T05:17:56;54.61;52.66;67.79;;
85141;Laerm;75501;52.586;13.284;2024-02-04T05:20:24;53.78;52.36;66.29;;
85141;Laerm;75501;52.586;13.284;2024-02-04T05:22:52;53.69;52.14;63.45;;
85141;Laerm;75501;52.586;13.284;2024-02-04T05:25:21;53.85;52.23;64.06;;
85141;Laerm;75501;52.586;13.284;2024-02-04T05:27:49;53.84;52.49;67.89;;
85141;Laerm;75501;52.586;13.284;2024-02-04T05:30:17;53.76;52.37;64.35;;
85141;Laerm;75501;52.586;13.284;2024-02-04T05:32:46;53.67;52.31;65.83;;
85141;Laerm;75501;52.586;13.284;2024-02-04T05:35:14;53.98;52.52;71.19;;
85141;Laerm;75501;52.586;13.284;2024-02-04T05:37:42;53.90;52.29;64.46;;
85141;Laerm;75501;52.586;13.284;2024-02-04T05:40:11;53.61;52.22;63.21;;
85141;Laerm;75501;52.586;13.284;2024-02-04T05:42:42;53.76;52.07;65.56;;
85141;Laerm;75501;52.586;13.284;2024-02-04T05:45:10;53.79;52.29;64.11;;
85141;Laerm;75501;52.586;13.284;2024-02-04T05:47:39;53.60;52.07;65.22;;
85141;Laerm;75501;52.586;13.284;2024-02-04T05:50:09;54.12;52.24;69.47;;
85141;Laerm;75501;52.586;13.284;2024-02-04T05:52:37;53.95;52.38;64.40;;
85141;Laerm;75501;52.586;13.284;2024-02-04T05:55:06;53.89;52.38;64.73;;
85141;Laerm;75501;52.586;13.284;2024-02-04T05:57:35;54.07;52.41;70.30;;
85141;Laerm;75501;52.586;13.284;2024-02-04T06:00:04;54.24;52.73;67.18;;
85141;Laerm;75501;52.586;13.284;2024-02-04T06:02:33;54.37;52.26;65.38;;
85141;Laerm;75501;52.586;13.284;2024-02-04T06:05:01;53.94;52.42;64.29;;
85141;Laerm;75501;52.586;13.284;2024-02-04T06:07:30;53.99;52.19;62.61;;
85141;Laerm;75501;52.586;13.284;2024-02-04T06:09:58;53.77;52.09;70.56;;
85141;Laerm;75501;52.586;13.284;2024-02-04T06:12:29;53.65;52.15;64.37;;
85141;Laerm;75501;52.586;13.284;2024-02-04T06:14:58;53.87;51.99;63.20;;
85141;Laerm;75501;52.586;13.284;2024-02-04T06:17:26;53.96;52.14;66.26;;
85141;Laerm;75501;52.586;13.284;2024-02-04T06:19:54;54.25;52.92;65.43;;
85141;Laerm;75501;52.586;13.284;2024-02-04T06:22:24;53.93;52.48;64.85;;
85141;Laerm;75501;52.586;13.284;2024-02-04T06:24:53;53.99;52.37;63.60;;
85141;Laerm;75501;52.586;13.284;2024-02-04T06:27:21;54.04;52.64;56.10;;
85141;Laerm;75501;52.586;13.284;2024-02-04T06:29:49;54.06;52.58;65.12;;
85141;Laerm;75501;52.586;13.284;2024-02-04T06:32:17;53.73;52.43;63.17;;
85141;Laerm;75501;52.586;13.284;2024-02-04T06:34:47;53.91;51.98;71.62;;
85141;Laerm;75501;52.586;13.284;2024-02-04T06:37:15;53.96;52.31;70.76;;
85141;Laerm;75501;52.586;13.284;2024-02-04T06:39:43;54.00;52.17;64.80;;
85141;Laerm;75501;52.586;13.284;2024-02-04T06:42:13;54.04;52.33;65.98;;
85141;Laerm;75501;52.586;13.284;2024-02-04T06:44:43;53.95;52.05;70.58;;
85141;Laerm;75501;52.586;13.284;2024-02-04T06:47:11;54.33;52.45;67.65;;
85141;Laerm;75501;52.586;13.284;2024-02-04T06:49:44;54.64;52.74;71.55;;
85141;Laerm;75501;52.586;13.284;2024-02-04T06:52:13;53.68;51.77;63.34;;
85141;Laerm;75501;52.586;13.284;2024-02-04T06:54:41;53.39;51.78;61.51;;
85141;Laerm;75501;52.586;13.284;2024-02-04T06:57:09;53.27;51.88;61.76;;
85141;Laerm;75501;52.586;13.284;2024-02-04T06:59:38;53.45;51.60;62.04;;
85141;Laerm;75501;52.586;13.284;2024-02-04T07:02:07;53.61;51.78;64.33;;
85141;Laerm;75501;52.586;13.284;2024-02-04T07:04:35;53.74;52.10;64.66;;
85141;Laerm;75501;52.586;13.284;2024-02-04T07:07:03;53.78;52.12;63.27;;
85141;Laerm;75501;52.586;13.284;2024-02-04T07:09:31;53.70;52.23;64.79;;
85141;Laerm;75501;52.586;13.284;2024-02-04T07:11:58;53.73;52.07;64.20;;
85141;Laerm;75501;52.586;13.284;2024-02-04T07:14:26;53.65;51.92;62.15;;
85141;Laerm;75501;52.586;13.284;2024-02-04T07:16:56;53.62;51.85;65.58;;
85141;Laerm;75501;52.586;13.284;2024-02-04T07:19:24;53.66;51.66;70.89;;
85141;Laerm;75501;52.586;13.284;2024-02-04T07:21:52;53.68;52.01;64.12;;
85141;Laerm;75501;52.586;13.284;2024-02-04T07:24:20;53.69;52.16;64.36;;
85141;Laerm;75501;52.586;13.284;2024-02-04T07:26:48;53.79;52.14;63.60;;
85141;Laerm;75501;52.586;13.284;2024-02-04T07:29:16;53.80;52.05;64.80;;
85141;Laerm;75501;52.586;13.284;2024-02-04T07:31:44;53.65;51.60;64.71;;
85141;Laerm;75501;52.586;13.284;2024-02-04T07:34:13;53.49;51.83;62.29;;
85141;Laerm;75501;52.586;13.284;2024-02-04T07:36:42;53.55;51.65;70.54;;
85141;Laerm;75501;52.586;13.284;2024-02-04T07:39:11;53.62;51.90;61.33;;
85141;Laerm;75501;52.586;13.284;2024-02-04T07:41:39;53.26;51.84;60.25;;
85141;Laerm;75501;52.586;13.284;2024-02-04T07:44:07;53.62;51.82;61.75;;
85141;Laerm;75501;52.586;13.284;2024-02-04T07:46:35;54.22;52.08;63.92;;
85141;Laerm;75501;52.586;13.284;2024-02-04T07:49:03;53.99;52.28;64.34;;
85141;Laerm;75501;52.586;13.284;2024-02-04T07:51:33;53.66;51.98;63.49;;
85141;Laerm;75501;52.586;13.284;2024-02-04T07:54:03;53.47;51.75;60.76;;
85141;Laerm;75501;52.586;13.284;2024-02-04T07:56:31;53.83;52.11;70.02;;
85141;Laerm;75501;52.586;13.284;2024-02-04T07:58:59;53.87;51.91;62.97;;
85141;Laerm;75501;52.586;13.284;2024-02-04T08:01:27;54.42;52.31;65.80;;
85141;Laerm;75501;52.586;13.284;2024-02-04T08:03:55;53.71;52.34;62.41;;
85141;Laerm;75501;52.586;13.284;2024-02-04T08:06:24;53.88;52.10;63.49;;
85141;Laerm;75501;52.586;13.284;2024-02-04T08:08:53;53.78;52.01;61.37;;
85141;Laerm;75501;52.586;13.284;2024-02-04T08:11:21;53.95;52.09;69.92;;
85141;Laerm;75501;52.586;13.284;2024-02-04T08:13:49;53.97;52.38;61.90;;
85141;Laerm;75501;52.586;13.284;2024-02-04T08:16:17;54.11;52.30;58.30;;
85141;Laerm;75501;52.586;13.284;2024-02-04T08:18:45;54.35;51.97;63.48;;
85141;Laerm;75501;52.586;13.284;2024-02-04T08:21:13;54.09;52.40;62.29;;
85141;Laerm;75501;52.586;13.284;2024-02-04T08:23:42;53.94;52.49;62.52;;
85141;Laerm;75501;52.586;13.284;2024-02-04T08:26:12;54.49;52.85;69.59;;
85141;Laerm;75501;52.586;13.284;2024-02-04T08:28:41;54.02;52.33;57.57;;
85141;Laerm;75501;52.586;13.284;2024-02-04T08:31:09;53.83;52.10;59.48;;
85141;Laerm;75501;52.586;13.284;2024-02-04T08:33:38;53.95;52.39;62.40;;
85141;Laerm;75501;52.586;13.284;2024-02-04T08:36:06;53.84;52.34;61.07;;
85141;Laerm;75501;52.586;13.284;2024-02-04T08:38:37;54.13;52.37;60.24;;
85141;Laerm;75501;52.586;13.284;2024-02-04T08:41:05;54.00;52.37;58.87;;
85141;Laerm;75501;52.586;13.284;2024-02-04T08:43:34;54.39;52.60;58.39;;
85141;Laerm;75501;52.586;13.284;2024-02-04T08:46:03;54.53;52.53;69.72;;
85141;Laerm;75501;52.586;13.284;2024-02-04T08:48:40;54.82;52.80;60.20;;
85141;Laerm;75501;52.586;13.284;2024-02-04T08:51:11;54.43;52.77;69.03;;
85141;Laerm;75501;52.586;13.284;2024-02-04T08:53:39;54.35;52.72;59.10;;
85141;Laerm;75501;52.586;13.284;2024-02-04T08:56:08;54.69;52.79;60.62;;
85141;Laerm;75501;52.586;13.284;2024-02-04T08:58:38;54.48;52.44;59.47;;
85141;Laerm;75501;52.586;13.284;2024-02-04T09:01:06;54.38;52.85;69.23;;
85141;Laerm;75501;52.586;13.284;2024-02-04T09:03:35;54.68;52.68;60.97;;
85141;Laerm;75501;52.586;13.284;2024-02-04T09:06:05;54.64;52.92;69.96;;
85141;Laerm;75501;52.586;13.284;2024-02-04T09:08:33;54.85;53.19;58.94;;
85141;Laerm;75501;52.586;13.284;2024-02-04T09:11:01;54.49;52.86;59.22;;
85141;Laerm;75501;52.586;13.284;2024-02-04T09:13:29;54.42;52.88;57.99;;
85141;Laerm;75501;52.586;13.284;2024-02-04T09:15:58;54.65;53.07;57.64;;
85141;Laerm;75501;52.586;13.284;2024-02-04T09:18:26;54.48;52.87;69.23;;
85141;Laerm;75501;52.586;13.284;2024-02-04T09:20:55;54.53;52.87;57.79;;
85141;Laerm;75501;52.586;13.284;2024-02-04T09:23:23;54.69;53.29;57.40;;
85141;Laerm;75501;52.586;13.284;2024-02-04T09:25:51;55.07;53.03;61.49;;
85141;Laerm;75501;52.586;13.284;2024-02-04T09:28:19;54.64;53.12;58.03;;
85141;Laerm;75501;52.586;13.284;2024-02-04T09:30:48;54.58;53.19;57.46;;
85141;Laerm;75501;52.586;13.284;2024-02-04T09:33:17;54.62;52.93;57.85;;
85141;Laerm;75501;52.586;13.284;2024-02-04T09:35:46;54.68;53.28;57.95;;
85141;Laerm;75501;52.586;13.284;2024-02-04T09:38:16;54.89;53.10;58.12;;
85141;Laerm;75501;52.586;13.284;2024-02-04T09:40:44;55.04;53.44;60.67;;
85141;Laerm;75501;52.586;13.284;2024-02-04T09:43:13;55.09;52.92;58.54;;
85141;Laerm;75501;52.586;13.284;2024-02-04T09:45:42;54.94;53.27;68.98;;
85141;Laerm;75501;52.586;13.284;2024-02-04T09:48:11;54.79;53.30;67.87;;
85141;Laerm;75501;52.586;13.284;2024-02-04T09:50:41;54.95;53.39;57.50;;
85141;Laerm;75501;52.586;13.284;2024-02-04T09:53:14;55.05;53.48;58.34;;
85141;Laerm;75501;52.586;13.284;2024-02-04T09:55:43;55.06;53.18;57.78;;
85141;Laerm;75501;52.586;13.284;2024-02-04T09:58:12;55.17;53.35;57.50;;
85141;Laerm;75501;52.586;13.284;2024-02-04T10:00:41;55.09;53.55;65.21;;
85141;Laerm;75501;52.586;13.284;2024-02-04T10:03:12;55.31;53.46;62.35;;
85141;Laerm;75501;52.586;13.284;2024-02-04T10:05:41;54.90;53.41;57.42;;
85141;Laerm;75501;52.586;13.284;2024-02-04T10:08:10;55.07;53.57;57.65;;
85141;Laerm;75501;52.586;13.284;2024-02-04T10:10:38;55.23;53.54;67.73;;
85141;Laerm;75501;52.586;13.284;2024-02-04T10:13:08;55.20;53.37;59.77;;
85141;Laerm;75501;52.586;13.284;2024-02-04T10:15:45;55.13;53.31;65.76;;
85141;Laerm;75501;52.586;13.284;2024-02-04T10:18:17;55.03;53.16;59.50;;
85141;Laerm;75501;52.586;13.284;2024-02-04T10:20:48;55.31;53.39;61.83;;
85141;Laerm;75501;52.586;13.284;2024-02-04T10:23:19;55.62;53.52;66.09;;
85141;Laerm;75501;52.586;13.284;2024-02-04T10:25:58;54.87;52.99;58.50;;
85141;Laerm;75501;52.586;13.284;2024-02-04T10:28:31;54.87;53.16;58.84;;
85141;Laerm;75501;52.586;13.284;2024-02-04T10:30:59;54.87;52.89;59.82;;
85141;Laerm;75501;52.586;13.284;2024-02-04T10:33:30;54.77;53.26;58.29;;
85141;Laerm;75501;52.586;13.284;2024-02-04T10:36:00;55.05;52.80;59.56;;
85141;Laerm;75501;52.586;13.284;2024-02-04T10:38:28;54.54;52.85;64.41;;
85141;Laerm;75501;52.586;13.284;2024-02-04T10:41:00;54.32;52.60;58.25;;
85141;Laerm;75501;52.586;13.284;2024-02-04T10:43:32;54.88;52.90;59.89;;
85141;Laerm;75501;52.586;13.284;2024-02-04T10:46:09;54.87;52.72;57.75;;
85141;Laerm;75501;52.586;13.284;2024-02-04T10:48:37;54.80;52.69;59.88;;
85141;Laerm;75501;52.586;13.284;2024-02-04T10:51:14;54.49;52.84;57.60;;
85141;Laerm;75501;52.586;13.284;2024-02-04T10:53:46;54.67;52.88;58.84;;
85141;Laerm;75501;52.586;13.284;2024-02-04T10:56:25;54.39;52.89;59.94;;
85141;Laerm;75501;52.586;13.284;2024-02-04T10:58:59;54.81;52.85;59.11;;
85141;Laerm;75501;52.586;13.284;2024-02-04T11:01:30;54.99;53.04;58.61;;
85141;Laerm;75501;52.586;13.284;2024-02-04T11:04:00;55.16;53.05;59.96;;
85141;Laerm;75501;52.586;13.284;2024-02-04T11:06:31;54.89;53.03;69.16;;
85141;Laerm;75501;52.586;13.284;2024-02-04T11:09:01;54.91;52.74;58.29;;
85141;Laerm;75501;52.586;13.284;2024-02-04T11:11:30;54.96;53.21;62.34;;
85141;Laerm;75501;52.586;13.284;2024-02-04T11:14:04;54.80;53.06;69.06;;
85141;Laerm;75501;52.586;13.284;2024-02-04T11:19:58;54.53;52.78;59.95;;
85141;Laerm;75501;52.586;13.284;2024-02-04T11:22:58;54.86;52.92;58.42;;
85141;Laerm;75501;52.586;13.284;2024-02-04T11:25:45;54.65;52.57;59.02;;
85141;Laerm;75501;52.586;13.284;2024-02-04T11:28:16;54.90;53.19;58.79;;
85141;Laerm;75501;52.586;13.284;2024-02-04T11:30:47;54.45;52.92;57.07;;
85141;Laerm;75501;52.586;13.284;2024-02-04T11:33:19;54.83;52.81;58.43;;
85141;Laerm;75501;52.586;13.284;2024-02-04T11:35:59;54.47;52.68;57.55;;
85141;Laerm;75501;52.586;13.284;2024-02-04T11:38:36;54.56;52.89;58.98;;
85141;Laerm;75501;52.586;13.284;2024-02-04T11:41:05;54.94;52.91;60.60;;
85141;Laerm;75501;52.586;13.284;2024-02-04T11:43:34;54.87;52.66;68.28;;
85141;Laerm;75501;52.586;13.284;2024-02-04T11:46:05;54.84;52.71;58.15;;
85141;Laerm;75501;52.586;13.284;2024-02-04T11:48:34;54.84;52.52;68.15;;
85141;Laerm;75501;52.586;13.284;2024-02-04T11:51:05;54.45;52.47;59.29;;
85141;Laerm;75501;52.586;13.284;2024-02-04T11:53:36;54.24;52.26;58.63;;
85141;Laerm;75501;52.586;13.284;2024-02-04T11:56:06;54.63;52.64;68.04;;
85141;Laerm;75501;52.586;13.284;2024-02-04T11:58:35;54.38;52.28;60.79;;
85141;Laerm;75501;52.586;13.284;2024-02-04T12:01:04;54.26;51.92;58.63;;
85141;Laerm;75501;52.586;13.284;2024-02-04T12:03:33;54.35;51.92;59.70;;
85141;Laerm;75501;52.586;13.284;2024-02-04T12:06:03;54.47;52.26;64.53;;
85141;Laerm;75501;52.586;13.284;2024-02-04T12:08:33;54.20;52.21;68.18;;
85141;Laerm;75501;52.586;13.284;2024-02-04T12:11:04;54.02;52.41;68.85;;
85141;Laerm;75501;52.586;13.284;2024-02-04T12:13:32;54.08;52.43;58.19;;
85141;Laerm;75501;52.586;13.284;2024-02-04T12:16:08;54.57;52.67;60.39;;
85141;Laerm;75501;52.586;13.284;2024-02-04T12:18:48;54.56;52.51;58.07;;
85141;Laerm;75501;52.586;13.284;2024-02-04T12:21:16;54.48;52.66;68.91;;
85141;Laerm;75501;52.586;13.284;2024-02-04T12:23:45;54.94;52.51;59.54;;
85141;Laerm;75501;52.586;13.284;2024-02-04T12:26:14;54.75;52.68;68.93;;
85141;Laerm;75501;52.586;13.284;2024-02-04T12:28:43;54.65;52.75;68.67;;
85141;Laerm;75501;52.586;13.284;2024-02-04T12:31:17;55.22;52.50;63.80;;
85141;Laerm;75501;52.586;13.284;2024-02-04T12:33:53;54.52;52.40;58.40;;
85141;Laerm;75501;52.586;13.284;2024-02-04T12:36:25;55.23;52.90;67.86;;
85141;Laerm;75501;52.586;13.284;2024-02-04T12:38:55;54.07;52.42;69.24;;
85141;Laerm;75501;52.586;13.284;2024-02-04T12:41:25;55.20;52.63;69.77;;
85141;Laerm;75501;52.586;13.284;2024-02-04T12:43:56;54.82;52.90;60.90;;
85141;Laerm;75501;52.586;13.284;2024-02-04T12:46:25;54.79;52.83;58.03;;
85141;Laerm;75501;52.586;13.284;2024-02-04T12:48:56;54.45;52.68;68.97;;
85141;Laerm;75501;52.586;13.284;2024-02-04T12:51:32;54.38;52.35;61.10;;
85141;Laerm;75501;52.586;13.284;2024-02-04T12:54:08;54.72;52.36;71.26;;
85141;Laerm;75501;52.586;13.284;2024-02-04T12:56:47;54.37;52.27;58.54;;
85141;Laerm;75501;52.586;13.284;2024-02-04T12:59:26;54.21;52.41;62.80;;
85141;Laerm;75501;52.586;13.284;2024-02-04T13:01:56;54.84;52.19;69.08;;
85141;Laerm;75501;52.586;13.284;2024-02-04T13:04:24;54.20;52.29;68.19;;
85141;Laerm;75501;52.586;13.284;2024-02-04T13:06:53;54.60;52.06;66.38;;
85141;Laerm;75501;52.586;13.284;2024-02-04T13:09:21;54.33;52.34;62.23;;
85141;Laerm;75501;52.586;13.284;2024-02-04T13:11:51;55.29;52.16;73.28;;
85141;Laerm;75501;52.586;13.284;2024-02-04T13:14:19;54.51;52.21;67.74;;
85141;Laerm;75501;52.586;13.284;2024-02-04T13:16:49;54.13;52.25;67.71;;
85141;Laerm;75501;52.586;13.284;2024-02-04T13:19:17;54.54;52.44;58.69;;
85141;Laerm;75501;52.586;13.284;2024-02-04T13:21:45;54.66;52.45;67.37;;
85141;Laerm;75501;52.586;13.284;2024-02-04T13:24:13;55.03;52.60;66.77;;
85141;Laerm;75501;52.586;13.284;2024-02-04T13:26:41;54.81;52.48;62.30;;
85141;Laerm;75501;52.586;13.284;2024-02-04T13:29:11;54.56;52.40;58.21;;
85141;Laerm;75501;52.586;13.284;2024-02-04T13:31:40;54.05;52.30;60.51;;
85141;Laerm;75501;52.586;13.284;2024-02-04T13:34:08;54.25;52.17;61.90;;
85141;Laerm;75501;52.586;13.284;2024-02-04T13:36:36;54.97;52.57;68.43;;
85141;Laerm;75501;52.586;13.284;2024-02-04T13:39:04;54.46;52.59;58.69;;
85141;Laerm;75501;52.586;13.284;2024-02-04T13:41:33;54.85;52.70;66.65;;
85141;Laerm;75501;52.586;13.284;2024-02-04T13:44:02;54.16;52.63;68.39;;
85141;Laerm;75501;52.586;13.284;2024-02-04T13:46:34;54.29;52.50;58.15;;
85141;Laerm;75501;52.586;13.284;2024-02-04T13:49:02;54.23;52.60;57.25;;